createdAt,value
2023-04-08T00:00:57.377Z,100.00
2023-04-08T00:03:26.802Z,100.00
2023-04-08T00:05:54.852Z,100.00
2023-04-08T00:08:24.473Z,100.00
2023-04-08T00:10:52.637Z,100.00
2023-04-08T00:13:21.529Z,100.00
2023-04-08T00:15:49.538Z,100.00
2023-04-08T00:18:17.885Z,100.00
2023-04-08T00:20:47.256Z,100.00
2023-04-08T00:23:15.815Z,100.00
2023-04-08T00:25:44.359Z,100.00
2023-04-08T00:28:15.065Z,100.00
2023-04-08T00:30:43.978Z,100.00
2023-04-08T00:33:12.069Z,100.00
2023-04-08T00:35:42.075Z,100.00
2023-04-08T00:38:10.581Z,100.00
2023-04-08T00:40:39.525Z,100.00
2023-04-08T00:43:07.665Z,100.00
2023-04-08T00:45:42.277Z,100.00
2023-04-08T00:48:11.278Z,100.00
2023-04-08T00:50:39.630Z,100.00
2023-04-08T00:53:27.522Z,100.00
2023-04-08T00:55:55.637Z,100.00
2023-04-08T00:58:23.737Z,100.00
2023-04-08T01:00:59.571Z,100.00
2023-04-08T01:03:35.561Z,100.00
2023-04-08T01:06:43.261Z,100.00
2023-04-08T01:09:11.597Z,100.00
2023-04-08T01:11:43.725Z,100.00
2023-04-08T01:14:12.659Z,100.00
2023-04-08T01:16:41.980Z,100.00
2023-04-08T01:19:14.310Z,100.00
2023-04-08T01:21:42.813Z,100.00
2023-04-08T01:24:31.681Z,100.00
2023-04-08T01:27:00.000Z,100.00
2023-04-08T01:29:29.281Z,100.00
2023-04-08T01:31:57.554Z,100.00
2023-04-08T01:34:28.599Z,100.00
2023-04-08T01:36:58.577Z,100.00
2023-04-08T01:39:27.025Z,100.00
2023-04-08T01:41:55.400Z,100.00
2023-04-08T01:44:26.548Z,100.00
2023-04-08T01:46:54.946Z,100.00
2023-04-08T01:49:24.035Z,100.00
2023-04-08T01:51:52.211Z,100.00
2023-04-08T01:54:20.968Z,100.00
2023-04-08T01:56:49.044Z,100.00
2023-04-08T01:59:17.273Z,100.00
2023-04-08T02:01:46.857Z,100.00
2023-04-08T02:04:15.815Z,100.00
2023-04-08T02:06:45.788Z,100.00
2023-04-08T02:09:13.893Z,100.00
2023-04-08T02:11:42.539Z,100.00
2023-04-08T02:14:11.191Z,100.00
2023-04-08T02:16:53.780Z,100.00
2023-04-08T02:19:27.097Z,100.00
2023-04-08T02:22:03.113Z,100.00
2023-04-08T02:24:31.785Z,100.00
2023-04-08T02:27:00.407Z,100.00
2023-04-08T02:29:29.685Z,100.00
2023-04-08T02:32:01.918Z,100.00
2023-04-08T02:34:31.047Z,100.00
2023-04-08T02:36:59.344Z,100.00
2023-04-08T02:39:36.467Z,100.00
2023-04-08T02:42:05.587Z,100.00
2023-04-08T02:44:34.019Z,100.00
2023-04-08T02:47:04.205Z,100.00
2023-04-08T02:49:33.373Z,100.00
2023-04-08T02:52:12.602Z,100.00
2023-04-08T02:54:42.111Z,100.00
2023-04-08T02:57:10.344Z,100.00
2023-04-08T02:59:41.613Z,100.00
2023-04-08T03:02:10.907Z,100.00
2023-04-08T03:04:39.199Z,100.00
2023-04-08T03:07:08.693Z,100.00
2023-04-08T03:09:44.761Z,100.00
2023-04-08T03:12:13.817Z,100.00
2023-04-08T03:14:42.753Z,100.00
2023-04-08T03:17:11.240Z,100.00
2023-04-08T03:19:40.148Z,100.00
2023-04-08T03:22:09.908Z,100.00
2023-04-08T03:24:39.265Z,100.00
2023-04-08T03:27:08.534Z,100.00
2023-04-08T03:29:36.879Z,100.00
2023-04-08T03:32:06.417Z,100.00
2023-04-08T03:34:35.617Z,100.00
2023-04-08T03:37:03.771Z,100.00
2023-04-08T03:39:32.180Z,100.00
2023-04-08T03:42:01.271Z,100.00
2023-04-08T03:44:29.498Z,100.00
2023-04-08T03:46:57.620Z,100.00
2023-04-08T03:49:26.301Z,100.00
2023-04-08T03:51:54.333Z,100.00
2023-04-08T03:54:22.635Z,100.00
2023-04-08T03:56:54.119Z,100.00
2023-04-08T03:59:25.941Z,100.00
2023-04-08T04:01:54.159Z,100.00
2023-04-08T04:04:22.334Z,100.00
2023-04-08T04:06:51.194Z,100.00
2023-04-08T04:09:19.442Z,100.00
2023-04-08T04:11:47.768Z,100.00
2023-04-08T04:14:18.750Z,100.00
2023-04-08T04:16:47.650Z,100.00
2023-04-08T04:19:17.908Z,100.00
2023-04-08T04:21:52.559Z,100.00
2023-04-08T04:24:21.264Z,100.00
2023-04-08T04:26:49.371Z,100.00
2023-04-08T04:29:17.460Z,100.00
2023-04-08T04:31:47.373Z,100.00
2023-04-08T04:34:16.153Z,100.00
2023-04-08T04:36:44.918Z,100.00
2023-04-08T04:39:16.355Z,100.00
2023-04-08T04:41:47.624Z,100.00
2023-04-08T04:44:16.160Z,100.00
2023-04-08T04:46:44.554Z,100.00
2023-04-08T04:49:13.068Z,100.00
2023-04-08T04:51:41.230Z,100.00
2023-04-08T04:54:09.315Z,100.00
2023-04-08T04:56:37.593Z,100.00
2023-04-08T04:59:06.907Z,100.00
2023-04-08T05:01:36.519Z,100.00
2023-04-08T05:04:04.790Z,100.00
2023-04-08T05:06:41.497Z,100.00
2023-04-08T05:09:10.494Z,100.00
2023-04-08T05:11:38.595Z,100.00
2023-04-08T05:14:10.609Z,100.00
2023-04-08T05:16:39.429Z,100.00
2023-04-08T05:19:07.801Z,100.00
2023-04-08T05:21:39.536Z,100.00
2023-04-08T05:24:08.072Z,100.00
2023-04-08T05:26:37.949Z,100.00
2023-04-08T05:29:07.707Z,100.00
2023-04-08T05:31:38.198Z,100.00
2023-04-08T05:34:06.394Z,100.00
2023-04-08T05:36:36.187Z,100.00
2023-04-08T05:39:06.370Z,100.00
2023-04-08T05:41:35.799Z,100.00
2023-04-08T05:44:04.017Z,100.00
2023-04-08T05:46:32.154Z,100.00
2023-04-08T05:49:00.735Z,100.00
2023-04-08T05:51:29.024Z,100.00
2023-04-08T05:53:58.529Z,100.00
2023-04-08T05:56:32.533Z,100.00
2023-04-08T05:59:01.844Z,100.00
2023-04-08T06:01:30.088Z,100.00
2023-04-08T06:03:58.619Z,100.00
2023-04-08T06:06:27.102Z,100.00
2023-04-08T06:08:55.686Z,100.00
2023-04-08T06:11:24.534Z,100.00
2023-04-08T06:13:53.501Z,100.00
2023-04-08T06:16:21.781Z,100.00
2023-04-08T06:18:56.962Z,100.00
2023-04-08T06:21:25.017Z,100.00
2023-04-08T06:23:53.107Z,100.00
2023-04-08T06:26:21.742Z,100.00
2023-04-08T06:28:50.179Z,100.00
2023-04-08T06:31:19.346Z,100.00
2023-04-08T06:33:47.515Z,100.00
2023-04-08T06:36:16.373Z,100.00
2023-04-08T06:38:44.544Z,100.00
2023-04-08T06:41:12.713Z,100.00
2023-04-08T06:43:41.552Z,100.00
2023-04-08T06:46:09.593Z,100.00
2023-04-08T06:48:39.233Z,100.00
2023-04-08T06:51:08.229Z,100.00
2023-04-08T06:53:38.480Z,100.00
2023-04-08T06:56:07.214Z,100.00
2023-04-08T06:58:40.537Z,100.00
2023-04-08T07:01:08.875Z,100.00
2023-04-08T07:03:38.127Z,100.00
2023-04-08T07:06:06.625Z,100.00
2023-04-08T07:08:36.654Z,100.00
2023-04-08T07:11:05.858Z,100.00
2023-04-08T07:13:34.792Z,100.00
2023-04-08T07:16:02.869Z,100.00
2023-04-08T07:18:34.093Z,100.00
2023-04-08T07:21:02.487Z,100.00
2023-04-08T07:23:32.735Z,100.00
2023-04-08T07:26:06.874Z,100.00
2023-04-08T07:28:35.787Z,100.00
2023-04-08T07:31:15.374Z,100.00
2023-04-08T07:33:44.734Z,100.00
2023-04-08T07:36:18.598Z,100.00
2023-04-08T07:38:47.775Z,100.00
2023-04-08T07:41:19.701Z,100.00
2023-04-08T07:43:47.880Z,100.00
2023-04-08T07:46:16.213Z,100.00
2023-04-08T07:48:44.788Z,100.00
2023-04-08T07:51:14.914Z,100.00
2023-04-08T07:53:43.248Z,100.00
2023-04-08T07:56:12.703Z,100.00
2023-04-08T07:58:41.390Z,100.00
2023-04-08T08:01:21.311Z,100.00
2023-04-08T08:03:52.059Z,100.00
2023-04-08T08:06:20.995Z,100.00
2023-04-08T08:08:50.086Z,100.00
2023-04-08T08:11:18.132Z,100.00
2023-04-08T08:13:53.887Z,100.00
2023-04-08T08:16:28.736Z,100.00
2023-04-08T08:18:58.379Z,100.00
2023-04-08T08:21:38.231Z,100.00
2023-04-08T08:24:07.046Z,100.00
2023-04-08T08:26:37.185Z,100.00
2023-04-08T08:29:09.062Z,100.00
2023-04-08T08:31:38.246Z,100.00
2023-04-08T08:34:06.319Z,100.00
2023-04-08T08:36:35.074Z,100.00
2023-04-08T08:39:03.423Z,100.00
2023-04-08T08:41:37.958Z,100.00
2023-04-08T08:44:07.793Z,100.00
2023-04-08T08:46:36.284Z,100.00
2023-04-08T08:49:04.558Z,100.00
2023-04-08T08:51:32.935Z,100.00
2023-04-08T08:54:04.794Z,100.00
2023-04-08T08:56:34.503Z,100.00
2023-04-08T08:59:03.760Z,100.00
2023-04-08T09:01:34.709Z,100.00
2023-04-08T09:04:09.947Z,100.00
2023-04-08T09:06:39.565Z,100.00
2023-04-08T09:09:10.662Z,100.00
2023-04-08T09:11:40.931Z,100.00
2023-04-08T09:14:22.812Z,100.00
2023-04-08T09:16:51.727Z,100.00
2023-04-08T09:19:19.875Z,100.00
2023-04-08T09:22:20.062Z,99.68
2023-04-08T09:24:48.117Z,99.89
2023-04-08T09:27:16.229Z,99.39
2023-04-08T09:29:45.827Z,91.05
2023-04-08T09:32:13.890Z,91.35
2023-04-08T09:34:42.939Z,92.83
2023-04-08T09:37:11.985Z,90.51
2023-04-08T09:39:46.591Z,81.85
2023-04-08T09:42:14.678Z,79.02
2023-04-08T09:44:46.188Z,75.92
2023-04-08T09:47:23.915Z,71.84
2023-04-08T09:49:56.554Z,71.37
2023-04-08T09:52:28.403Z,67.85
2023-04-08T09:55:05.936Z,68.04
2023-04-08T09:57:41.752Z,67.52
2023-04-08T10:00:16.571Z,67.42
2023-04-08T10:03:10.744Z,67.14
2023-04-08T10:05:42.461Z,68.01
2023-04-08T10:08:10.745Z,67.33
2023-04-08T10:10:40.393Z,68.63
2023-04-08T10:13:15.864Z,69.14
2023-04-08T10:15:45.935Z,69.19
2023-04-08T10:18:30.644Z,67.53
2023-04-08T10:21:03.161Z,65.42
2023-04-08T10:23:59.886Z,63.92
2023-04-08T10:26:35.991Z,64.39
2023-04-08T10:29:19.531Z,64.55
2023-04-08T10:31:50.956Z,63.71
2023-04-08T10:34:21.347Z,64.05
2023-04-08T10:36:50.062Z,63.63
2023-04-08T10:39:19.230Z,65.45
2023-04-08T10:41:48.925Z,67.13
2023-04-08T10:44:21.060Z,66.85
2023-04-08T10:46:50.584Z,66.21
2023-04-08T10:49:19.249Z,68.26
2023-04-08T10:51:48.750Z,67.46
2023-04-08T10:54:17.784Z,66.60
2023-04-08T10:56:50.553Z,64.10
2023-04-08T10:59:32.246Z,63.20
2023-04-08T11:02:01.530Z,62.87
2023-04-08T11:04:30.380Z,61.38
2023-04-08T11:06:59.803Z,59.81
2023-04-08T11:09:28.682Z,59.02
2023-04-08T11:11:56.737Z,56.81
2023-04-08T11:14:27.463Z,54.95
2023-04-08T11:16:55.851Z,52.65
2023-04-08T11:19:24.327Z,51.04
2023-04-08T11:21:53.312Z,49.73
2023-04-08T11:24:22.491Z,48.59
2023-04-08T11:26:55.457Z,48.19
2023-04-08T11:29:23.558Z,47.01
2023-04-08T11:31:51.631Z,48.35
2023-04-08T11:34:24.615Z,49.54
2023-04-08T11:36:53.487Z,50.41
2023-04-08T11:39:24.744Z,50.85
2023-04-08T11:41:53.451Z,50.22
2023-04-08T11:44:31.054Z,49.47
2023-04-08T11:47:04.117Z,49.67
2023-04-08T11:49:44.847Z,49.76
2023-04-08T11:52:13.369Z,49.05
2023-04-08T11:54:42.739Z,47.24
2023-04-08T11:57:10.784Z,44.30
2023-04-08T11:59:39.268Z,44.42
2023-04-08T12:02:07.968Z,44.69
2023-04-08T12:04:36.224Z,45.37
2023-04-08T12:07:04.530Z,46.73
2023-04-08T12:09:32.752Z,47.68
2023-04-08T12:12:07.567Z,48.50
2023-04-08T12:14:37.647Z,49.47
2023-04-08T12:17:07.118Z,49.67
2023-04-08T12:19:39.575Z,48.82
2023-04-08T12:22:08.022Z,49.28
2023-04-08T12:24:36.311Z,48.72
2023-04-08T12:27:09.265Z,46.85
2023-04-08T12:29:39.332Z,46.16
2023-04-08T12:32:07.503Z,45.25
2023-04-08T12:34:35.682Z,45.17
2023-04-08T12:37:04.083Z,44.71
2023-04-08T12:39:33.450Z,43.07
2023-04-08T12:42:01.544Z,42.74
2023-04-08T12:44:29.806Z,42.43
2023-04-08T12:47:01.305Z,41.33
2023-04-08T12:49:30.849Z,40.85
2023-04-08T12:52:05.632Z,40.77
2023-04-08T12:54:34.267Z,40.95
2023-04-08T12:57:03.068Z,40.64
2023-04-08T12:59:33.581Z,38.81
2023-04-08T13:02:01.610Z,38.95
2023-04-08T13:04:30.878Z,39.07
2023-04-08T13:07:02.695Z,39.00
2023-04-08T13:09:34.393Z,39.23
2023-04-08T13:12:04.985Z,38.85
2023-04-08T13:14:33.536Z,38.90
2023-04-08T13:17:01.614Z,39.45
2023-04-08T13:19:31.464Z,38.60
2023-04-08T13:21:59.841Z,37.02
2023-04-08T13:24:28.529Z,36.97
2023-04-08T13:26:58.942Z,37.71
2023-04-08T13:29:28.586Z,41.90
2023-04-08T13:31:57.774Z,44.53
2023-04-08T13:34:26.362Z,45.99
2023-04-08T13:36:55.495Z,47.84
2023-04-08T13:39:23.528Z,49.46
2023-04-08T13:41:52.451Z,50.82
2023-04-08T13:44:21.001Z,54.81
2023-04-08T13:46:49.307Z,61.80
2023-04-08T13:49:17.722Z,69.38
2023-04-08T13:51:46.324Z,79.35
2023-04-08T13:54:15.362Z,85.37
2023-04-08T13:56:44.158Z,91.44
2023-04-08T13:59:12.160Z,99.53
2023-04-08T14:01:41.410Z,100.00
2023-04-08T14:04:09.829Z,100.00
2023-04-08T14:06:37.903Z,100.00
2023-04-08T14:09:06.983Z,100.00
2023-04-08T14:11:38.104Z,100.00
2023-04-08T14:14:06.691Z,100.00
2023-04-08T14:16:36.195Z,100.00
2023-04-08T14:19:05.143Z,100.00
2023-04-08T14:21:33.368Z,100.00
2023-04-08T14:24:02.836Z,100.00
2023-04-08T14:26:35.824Z,100.00
2023-04-08T14:29:05.072Z,100.00
2023-04-08T14:31:33.853Z,100.00
2023-04-08T14:34:02.267Z,100.00
2023-04-08T14:36:34.038Z,100.00
2023-04-08T14:39:05.285Z,100.00
2023-04-08T14:41:38.020Z,100.00
2023-04-08T14:44:06.578Z,100.00
2023-04-08T14:46:39.862Z,100.00
2023-04-08T14:49:09.496Z,100.00
2023-04-08T14:51:38.324Z,100.00
2023-04-08T14:54:07.702Z,100.00
2023-04-08T14:56:36.470Z,100.00
2023-04-08T14:59:06.318Z,100.00
2023-04-08T15:01:35.953Z,100.00
2023-04-08T15:04:04.436Z,100.00
2023-04-08T15:06:32.565Z,100.00
2023-04-08T15:09:01.350Z,100.00
2023-04-08T15:11:29.595Z,100.00
2023-04-08T15:13:59.429Z,100.00
2023-04-08T15:16:27.905Z,100.00
2023-04-08T15:18:59.798Z,100.00
2023-04-08T15:21:28.729Z,100.00
2023-04-08T15:23:57.254Z,100.00
2023-04-08T15:26:25.520Z,100.00
2023-04-08T15:28:54.865Z,98.71
2023-04-08T15:31:23.396Z,98.05
2023-04-08T15:33:51.718Z,96.71
2023-04-08T15:36:20.301Z,95.46
2023-04-08T15:38:48.713Z,91.81
2023-04-08T15:41:21.452Z,90.90
2023-04-08T15:43:50.356Z,93.72
2023-04-08T15:46:19.514Z,95.34
2023-04-08T15:48:48.791Z,99.90
2023-04-08T15:51:17.424Z,96.93
2023-04-08T15:53:45.910Z,95.31
2023-04-08T15:56:16.448Z,96.06
2023-04-08T15:58:45.831Z,99.76
2023-04-08T16:01:14.009Z,100.00
2023-04-08T16:03:46.519Z,100.00
2023-04-08T16:06:14.604Z,100.00
2023-04-08T16:08:50.454Z,100.00
2023-04-08T16:11:18.794Z,100.00
2023-04-08T16:13:47.845Z,100.00
2023-04-08T16:16:16.262Z,100.00
2023-04-08T16:18:46.102Z,100.00
2023-04-08T16:21:15.717Z,100.00
2023-04-08T16:23:44.347Z,100.00
2023-04-08T16:26:12.920Z,100.00
2023-04-08T16:28:43.793Z,100.00
2023-04-08T16:31:12.253Z,100.00
2023-04-08T16:33:42.021Z,100.00
2023-04-08T16:36:10.228Z,100.00
2023-04-08T16:38:43.276Z,100.00
2023-04-08T16:41:11.586Z,100.00
2023-04-08T16:43:39.652Z,100.00
2023-04-08T16:46:11.817Z,100.00
2023-04-08T16:48:41.257Z,100.00
2023-04-08T16:51:09.959Z,100.00
2023-04-08T16:53:38.337Z,100.00
2023-04-08T16:56:13.590Z,100.00
2023-04-08T16:58:42.556Z,100.00
2023-04-08T17:01:11.582Z,100.00
2023-04-08T17:03:41.479Z,100.00
2023-04-08T17:06:12.167Z,100.00
2023-04-08T17:08:49.215Z,100.00
2023-04-08T17:11:22.079Z,100.00
2023-04-08T17:13:51.278Z,100.00
2023-04-08T17:16:20.270Z,100.00
2023-04-08T17:18:50.540Z,100.00
2023-04-08T17:21:18.720Z,100.00
2023-04-08T17:23:52.235Z,100.00
2023-04-08T17:26:22.315Z,100.00
2023-04-08T17:28:50.635Z,100.00
2023-04-08T17:31:21.817Z,100.00
2023-04-08T17:33:50.680Z,100.00
2023-04-08T17:36:19.385Z,100.00
2023-04-08T17:38:49.501Z,100.00
2023-04-08T17:41:29.787Z,100.00
2023-04-08T17:44:06.093Z,100.00
2023-04-08T17:46:34.222Z,100.00
2023-04-08T17:49:08.051Z,100.00
2023-04-08T17:51:37.560Z,100.00
2023-04-08T17:54:06.034Z,100.00
2023-04-08T17:56:36.872Z,100.00
2023-04-08T17:59:05.098Z,100.00
2023-04-08T18:01:35.043Z,100.00
2023-04-08T18:04:05.840Z,100.00
2023-04-08T18:06:34.685Z,100.00
2023-04-08T18:09:06.030Z,100.00
2023-04-08T18:11:37.449Z,100.00
2023-04-08T18:14:07.084Z,100.00
2023-04-08T18:16:47.695Z,100.00
2023-04-08T18:19:16.460Z,100.00
2023-04-08T18:21:44.731Z,100.00
2023-04-08T18:24:13.473Z,100.00
2023-04-08T18:29:10.422Z,100.00
2023-04-08T18:31:40.828Z,100.00
2023-04-08T18:34:09.126Z,100.00
2023-04-08T18:36:38.451Z,100.00
2023-04-08T18:39:07.822Z,100.00
2023-04-08T18:41:47.251Z,100.00
2023-04-08T18:44:18.027Z,100.00
2023-04-08T18:46:50.555Z,100.00
2023-04-08T18:49:20.931Z,100.00
2023-04-08T18:52:01.304Z,100.00
2023-04-08T18:54:32.440Z,100.00
2023-04-08T18:57:03.278Z,100.00
2023-04-08T18:59:34.676Z,100.00
2023-04-08T19:02:04.110Z,100.00
2023-04-08T19:04:46.439Z,100.00
2023-04-08T19:07:24.250Z,100.00
2023-04-08T19:09:59.217Z,100.00
2023-04-08T19:12:28.149Z,100.00
2023-04-08T19:15:04.412Z,100.00
2023-04-08T19:17:35.767Z,100.00
2023-04-08T19:20:10.047Z,100.00
2023-04-08T19:22:43.313Z,100.00
2023-04-08T19:25:14.606Z,100.00
2023-04-08T19:27:43.265Z,100.00
2023-04-08T19:30:12.081Z,100.00
2023-04-08T19:32:43.276Z,100.00
2023-04-08T19:35:12.376Z,100.00
2023-04-08T19:37:41.250Z,100.00
2023-04-08T19:40:10.571Z,100.00
2023-04-08T19:42:42.282Z,100.00
2023-04-08T19:45:15.891Z,100.00
2023-04-08T19:47:49.424Z,100.00
2023-04-08T19:50:19.096Z,100.00
2023-04-08T19:52:47.284Z,100.00
2023-04-08T19:55:17.234Z,100.00
2023-04-08T19:57:48.744Z,100.00
2023-04-08T20:00:21.098Z,100.00
2023-04-08T20:02:50.110Z,100.00
2023-04-08T20:05:18.736Z,100.00
2023-04-08T20:07:52.314Z,100.00
2023-04-08T20:10:21.109Z,100.00
2023-04-08T20:12:49.219Z,100.00
2023-04-08T20:15:25.153Z,100.00
2023-04-08T20:17:54.117Z,100.00
2023-04-08T20:20:26.319Z,100.00
2023-04-08T20:22:56.250Z,100.00
2023-04-08T20:25:24.487Z,100.00
2023-04-08T20:27:54.981Z,100.00
2023-04-08T20:30:26.380Z,100.00
2023-04-08T20:32:54.527Z,100.00
2023-04-08T20:35:22.970Z,100.00
2023-04-08T20:37:51.212Z,100.00
2023-04-08T20:40:22.072Z,100.00
2023-04-08T20:42:50.132Z,100.00
2023-04-08T20:45:18.186Z,100.00
2023-04-08T20:47:46.676Z,100.00
2023-04-08T20:50:15.454Z,100.00
2023-04-08T20:52:44.305Z,100.00
2023-04-08T20:55:13.465Z,100.00
2023-04-08T20:57:42.145Z,100.00
2023-04-08T21:00:10.646Z,100.00
2023-04-08T21:02:40.631Z,100.00
2023-04-08T21:05:09.019Z,100.00
2023-04-08T21:07:44.484Z,100.00
2023-04-08T21:10:14.349Z,100.00
2023-04-08T21:12:48.268Z,100.00
2023-04-08T21:15:19.458Z,100.00
2023-04-08T21:17:48.062Z,100.00
2023-04-08T21:20:16.440Z,100.00
2023-04-08T21:22:45.526Z,100.00
2023-04-08T21:25:13.917Z,100.00
2023-04-08T21:27:46.311Z,100.00
2023-04-08T21:30:14.569Z,100.00
2023-04-08T21:32:42.782Z,100.00
2023-04-08T21:35:11.167Z,100.00
2023-04-08T21:37:39.473Z,100.00
2023-04-08T21:40:09.056Z,100.00
2023-04-08T21:42:38.880Z,100.00
2023-04-08T21:45:08.304Z,100.00
2023-04-08T21:47:37.325Z,100.00
2023-04-08T21:50:09.852Z,100.00
2023-04-08T21:52:38.645Z,100.00
2023-04-08T21:55:08.220Z,100.00
2023-04-08T21:57:38.016Z,100.00
2023-04-08T22:00:13.406Z,100.00
2023-04-08T22:02:52.631Z,100.00
2023-04-08T22:05:21.088Z,100.00
2023-04-08T22:07:57.418Z,100.00
2023-04-08T22:10:27.939Z,100.00
2023-04-08T22:12:56.391Z,100.00
2023-04-08T22:15:29.024Z,100.00
2023-04-08T22:17:58.943Z,100.00
2023-04-08T22:20:27.146Z,100.00
2023-04-08T22:22:58.593Z,100.00
2023-04-08T22:25:28.309Z,100.00
2023-04-08T22:27:59.118Z,100.00
2023-04-08T22:30:37.802Z,100.00
2023-04-08T22:33:06.704Z,100.00
2023-04-08T22:35:35.792Z,100.00
2023-04-08T22:38:03.838Z,100.00
2023-04-08T22:40:35.762Z,100.00
2023-04-08T22:43:03.846Z,100.00
2023-04-08T22:45:37.078Z,100.00
2023-04-08T22:48:05.455Z,100.00
2023-04-08T22:50:52.038Z,100.00
2023-04-08T22:53:21.315Z,100.00
2023-04-08T22:55:49.298Z,100.00
2023-04-08T22:58:18.330Z,100.00
2023-04-08T23:00:47.135Z,100.00
2023-04-08T23:03:16.671Z,100.00
2023-04-08T23:05:44.858Z,100.00
2023-04-08T23:08:13.693Z,100.00
2023-04-08T23:10:41.815Z,100.00
2023-04-08T23:13:09.859Z,100.00
2023-04-08T23:15:39.151Z,100.00
2023-04-08T23:18:07.628Z,100.00
2023-04-08T23:20:36.032Z,100.00
2023-04-08T23:23:04.889Z,100.00
2023-04-08T23:25:35.460Z,100.00
2023-04-08T23:28:03.804Z,100.00
2023-04-08T23:30:32.444Z,100.00
2023-04-08T23:33:05.123Z,100.00
2023-04-08T23:35:33.409Z,100.00
2023-04-08T23:38:01.861Z,100.00
2023-04-08T23:40:30.099Z,100.00
2023-04-08T23:43:03.801Z,100.00
2023-04-08T23:45:33.239Z,100.00
2023-04-08T23:48:04.622Z,100.00
2023-04-08T23:50:33.700Z,100.00
2023-04-08T23:53:01.814Z,100.00
2023-04-08T23:55:35.946Z,100.00
2023-04-08T23:58:05.097Z,100.00
